Time;durP1;ratioP1;P1;durP2;ratioP2;P2;SDS_P1;SDS_P2;PMS_P1;PMS_P2;Temp;Humidity;BMP_temperature;BMP_pressure;BME280_temperature;BME280_humidity;BME280_pressure;Samples;Min_cycle;Max_cycle;Signal;HPM_P1;HPM_P2
2023/07/18 00:01:46;;;;;;;10.80;4.60;;;14.30;99.90;;;;;;4882639;28;88690;-35
2023/07/18 00:04:11;;;;;;;6.70;4.75;;;14.30;99.90;;;;;;4863364;28;90306;-34
2023/07/18 00:06:40;;;;;;;7.30;4.38;;;14.30;99.90;;;;;;4863194;28;91121;-36
2023/07/18 00:09:06;;;;;;;4.82;4.30;;;14.20;99.90;;;;;;4870700;28;90252;-32
2023/07/18 00:11:31;;;;;;;6.55;4.22;;;14.20;99.90;;;;;;4883203;28;89615;-41
2023/07/18 00:13:57;;;;;;;10.48;5.97;;;14.20;99.90;;;;;;4883009;28;90247;-34
2023/07/18 00:16:23;;;;;;;9.75;5.28;;;14.10;99.90;;;;;;4881202;28;89559;-36
2023/07/18 00:18:50;;;;;;;10.88;6.07;;;14.10;99.90;;;;;;4882420;28;89564;-37
2023/07/18 00:21:16;;;;;;;8.50;5.18;;;14.00;99.90;;;;;;4881423;28;89084;-38
2023/07/18 00:23:42;;;;;;;8.45;4.68;;;14.10;99.90;;;;;;4882524;28;89552;-34
2023/07/18 00:26:08;;;;;;;8.60;4.95;;;14.10;99.90;;;;;;4880913;28;90133;-32
2023/07/18 00:28:34;;;;;;;7.28;5.20;;;14.00;99.90;;;;;;4880538;28;89405;-40
2023/07/18 00:31:01;;;;;;;7.07;4.90;;;14.00;99.90;;;;;;4875424;28;89332;-34
2023/07/18 00:33:27;;;;;;;8.00;5.90;;;14.00;99.90;;;;;;4874623;28;90188;-33
2023/07/18 00:35:52;;;;;;;7.55;4.90;;;14.00;99.90;;;;;;4880083;28;90067;-34
2023/07/18 00:38:20;;;;;;;7.90;5.55;;;14.00;99.90;;;;;;4879106;28;89507;-33
2023/07/18 00:40:47;;;;;;;6.95;5.70;;;14.00;99.90;;;;;;4874536;28;89147;-34
2023/07/18 00:43:14;;;;;;;7.10;5.95;;;14.00;99.90;;;;;;4874009;28;90296;-37
2023/07/18 00:45:41;;;;;;;9.30;5.53;;;13.90;99.90;;;;;;4874492;28;90210;-35
2023/07/18 00:48:09;;;;;;;10.68;6.28;;;13.90;99.90;;;;;;4874300;28;89520;-35
2023/07/18 00:50:34;;;;;;;8.95;5.10;;;13.90;99.90;;;;;;4873821;28;89471;-35
2023/07/18 00:53:01;;;;;;;9.75;6.43;;;13.90;99.90;;;;;;4875204;28;89952;-34
2023/07/18 00:55:27;;;;;;;8.95;4.72;;;13.90;99.90;;;;;;4871398;28;91474;-32
2023/07/18 00:57:53;;;;;;;8.45;5.75;;;13.80;99.90;;;;;;4875014;28;90438;-38
2023/07/18 01:00:22;;;;;;;8.95;5.53;;;13.80;99.90;;;;;;4879560;28;90202;-33
2023/07/18 01:02:49;;;;;;;9.73;5.47;;;13.80;99.90;;;;;;4881674;28;90567;-37
2023/07/18 01:05:18;;;;;;;16.13;5.50;;;13.80;99.90;;;;;;4880833;28;89734;-41
2023/07/18 01:07:47;;;;;;;7.63;5.47;;;13.80;99.90;;;;;;4873202;28;89399;-33
2023/07/18 01:10:13;;;;;;;11.82;5.85;;;13.80;99.90;;;;;;4878158;28;88848;-39
2023/07/18 01:12:39;;;;;;;6.63;5.05;;;13.70;99.90;;;;;;4871987;28;90512;-32
2023/07/18 01:15:05;;;;;;;9.05;6.90;;;13.70;99.90;;;;;;4863214;28;89908;-38
2023/07/18 01:17:31;;;;;;;10.88;5.78;;;13.70;99.90;;;;;;4863081;28;89529;-33
2023/07/18 01:19:57;;;;;;;7.32;5.53;;;13.70;99.90;;;;;;4863781;28;89524;-38
2023/07/18 01:22:23;;;;;;;7.93;5.72;;;13.60;99.90;;;;;;4863316;28;90336;-32
2023/07/18 01:24:49;;;;;;;9.02;5.18;;;13.70;99.90;;;;;;4866900;28;89581;-36
2023/07/18 01:27:14;;;;;;;12.48;5.30;;;13.70;99.90;;;;;;4870958;28;90568;-34
2023/07/18 01:29:40;;;;;;;13.60;6.22;;;13.60;99.90;;;;;;4874932;28;89727;-35
2023/07/18 01:32:06;;;;;;;11.10;6.03;;;13.50;99.90;;;;;;4881462;28;91065;-38
2023/07/18 01:34:31;;;;;;;17.17;5.65;;;13.50;99.90;;;;;;4881359;28;90619;-37
2023/07/18 01:36:57;;;;;;;8.90;6.38;;;13.50;99.90;;;;;;4879228;28;89549;-37
2023/07/18 01:39:23;;;;;;;8.00;4.95;;;13.40;99.90;;;;;;4881410;28;88346;-39
2023/07/18 01:41:49;;;;;;;6.47;4.75;;;13.40;99.90;;;;;;4879998;28;90397;-41
2023/07/18 01:44:15;;;;;;;13.00;5.70;;;13.50;99.90;;;;;;4879677;28;90576;-38
2023/07/18 01:46:40;;;;;;;8.15;5.90;;;13.40;99.90;;;;;;4879886;28;90291;-37
2023/07/18 01:49:07;;;;;;;7.20;5.10;;;13.40;99.90;;;;;;4881104;28;89292;-39
2023/07/18 01:51:33;;;;;;;6.13;5.55;;;13.50;99.90;;;;;;4879282;28;90267;-34
2023/07/18 01:53:59;;;;;;;10.23;5.43;;;13.50;99.90;;;;;;4882176;28;88415;-33
2023/07/18 01:56:25;;;;;;;11.35;5.53;;;13.50;99.90;;;;;;4884379;28;89898;-37
2023/07/18 01:58:51;;;;;;;8.68;4.55;;;13.40;99.90;;;;;;4885273;28;89744;-31
2023/07/18 02:01:16;;;;;;;7.50;6.15;;;13.40;99.90;;;;;;4882511;28;90977;-33
2023/07/18 02:03:42;;;;;;;7.07;5.53;;;13.40;99.90;;;;;;4869429;28;89682;-33
2023/07/18 02:06:09;;;;;;;9.18;6.35;;;13.40;99.90;;;;;;4865452;28;89927;-35
2023/07/18 02:08:34;;;;;;;9.63;5.85;;;13.40;99.90;;;;;;4865022;28;89334;-33
2023/07/18 02:11:00;;;;;;;7.35;5.60;;;13.40;99.90;;;;;;4866669;28;90352;-34
2023/07/18 02:13:26;;;;;;;15.80;5.78;;;13.40;99.90;;;;;;4865926;28;89404;-34
2023/07/18 02:15:51;;;;;;;10.80;6.30;;;13.40;99.90;;;;;;4866586;28;91100;-33
2023/07/18 02:18:18;;;;;;;7.82;5.82;;;13.40;99.90;;;;;;4865505;28;89176;-34
2023/07/18 02:20:44;;;;;;;11.15;7.60;;;13.40;99.90;;;;;;4865876;28;92629;-34
2023/07/18 02:23:09;;;;;;;8.05;5.43;;;13.40;99.90;;;;;;4865321;28;89731;-32
2023/07/18 02:25:35;;;;;;;10.27;6.10;;;13.40;99.90;;;;;;4865542;28;89095;-32
2023/07/18 02:28:00;;;;;;;8.50;5.95;;;13.40;99.90;;;;;;4865195;28;88491;-37
2023/07/18 02:30:26;;;;;;;11.20;6.13;;;13.40;99.90;;;;;;4881793;28;90535;-36
2023/07/18 02:32:53;;;;;;;12.77;6.53;;;13.40;99.90;;;;;;4872183;28;90583;-33
2023/07/18 02:35:21;;;;;;;14.38;6.80;;;13.30;99.90;;;;;;4865169;28;91729;-33
2023/07/18 02:37:47;;;;;;;7.82;6.32;;;13.40;99.90;;;;;;4876919;28;89040;-36
2023/07/18 02:40:14;;;;;;;9.43;6.15;;;13.30;99.90;;;;;;4882465;28;89923;-36
2023/07/18 02:42:40;;;;;;;9.83;6.93;;;13.30;99.90;;;;;;4882782;28;90442;-31
2023/07/18 02:45:08;;;;;;;10.73;6.75;;;13.40;99.90;;;;;;4883253;28;90124;-33
2023/07/18 02:47:34;;;;;;;7.93;6.78;;;13.30;99.90;;;;;;4871139;28;89030;-37
2023/07/18 02:50:00;;;;;;;8.77;6.85;;;13.30;99.90;;;;;;4865869;28;90161;-39
2023/07/18 02:52:25;;;;;;;6.55;5.85;;;13.30;99.90;;;;;;4864794;28;90351;-38
2023/07/18 02:54:51;;;;;;;8.40;5.75;;;13.30;99.90;;;;;;4876296;28;90016;-35
2023/07/18 02:57:17;;;;;;;14.18;7.30;;;13.30;99.90;;;;;;4864242;28;90006;-36
2023/07/18 02:59:43;;;;;;;10.52;6.32;;;13.30;99.90;;;;;;4864480;28;88461;-31
2023/07/18 03:02:09;;;;;;;8.15;6.72;;;13.20;99.90;;;;;;4878064;28;89950;-39
2023/07/18 03:04:35;;;;;;;8.63;6.45;;;13.20;99.90;;;;;;4873570;28;91067;-33
2023/07/18 03:07:01;;;;;;;9.70;6.45;;;13.20;99.90;;;;;;4882825;28;89457;-35
2023/07/18 03:09:27;;;;;;;9.93;6.30;;;13.20;99.90;;;;;;4884103;28;91189;-31
2023/07/18 03:11:52;;;;;;;15.85;7.65;;;13.20;99.90;;;;;;4882881;28;89623;-37
2023/07/18 03:14:19;;;;;;;11.55;6.13;;;13.20;99.90;;;;;;4883289;28;89591;-36
2023/07/18 03:16:45;;;;;;;18.48;7.90;;;13.20;99.90;;;;;;4883157;28;89037;-36
2023/07/18 03:19:11;;;;;;;8.75;6.22;;;13.10;99.90;;;;;;4882996;28;90645;-40
2023/07/18 03:21:37;;;;;;;8.38;6.25;;;13.10;99.90;;;;;;4879983;28;89029;-39
2023/07/18 03:24:09;;;;;;;14.63;6.38;;;13.10;99.90;;;;;;4883519;28;90659;-39
2023/07/18 03:26:38;;;;;;;9.52;6.45;;;13.10;99.90;;;;;;4880615;28;89159;-35
2023/07/18 03:29:05;;;;;;;14.50;6.68;;;13.10;99.90;;;;;;4881351;28;90236;-33
2023/07/18 03:31:32;;;;;;;9.07;6.53;;;13.10;99.90;;;;;;4877276;28;88915;-33
2023/07/18 03:33:58;;;;;;;13.75;7.20;;;13.10;99.90;;;;;;4878799;28;89209;-39
2023/07/18 03:36:24;;;;;;;12.20;6.63;;;13.10;99.90;;;;;;4873613;28;88986;-32
2023/07/18 03:38:49;;;;;;;11.25;6.68;;;13.10;99.90;;;;;;4878776;28;89361;-34
2023/07/18 03:41:15;;;;;;;14.13;6.20;;;13.10;99.90;;;;;;4878166;28;89353;-32
2023/07/18 03:43:40;;;;;;;17.95;6.88;;;13.10;99.90;;;;;;4879276;28;89570;-37
2023/07/18 03:46:06;;;;;;;9.13;7.25;;;13.10;99.90;;;;;;4876462;28;89711;-38
2023/07/18 03:48:31;;;;;;;8.52;6.13;;;13.00;99.90;;;;;;4879937;28;90893;-36
2023/07/18 03:50:57;;;;;;;8.38;6.45;;;13.10;99.90;;;;;;4875055;28;89598;-36
2023/07/18 03:53:23;;;;;;;10.90;6.30;;;13.00;99.90;;;;;;4878522;28;89725;-32
2023/07/18 03:55:48;;;;;;;7.88;5.10;;;13.00;99.90;;;;;;4879045;28;89329;-37
2023/07/18 03:58:14;;;;;;;10.23;6.20;;;13.10;99.90;;;;;;4878953;28;89964;-41
2023/07/18 04:00:40;;;;;;;12.98;6.82;;;13.00;99.90;;;;;;4875948;28;90095;-38
2023/07/18 04:03:05;;;;;;;9.95;5.43;;;13.10;99.90;;;;;;4883370;28;88843;-39
2023/07/18 04:05:31;;;;;;;11.57;7.82;;;13.00;99.90;;;;;;4879590;28;89815;-34
2023/07/18 04:07:57;;;;;;;8.23;6.20;;;13.00;99.90;;;;;;4879859;28;91036;-34
2023/07/18 04:10:22;;;;;;;11.60;6.20;;;13.00;99.90;;;;;;4879469;28;92028;-33
2023/07/18 04:12:48;;;;;;;13.95;7.63;;;13.00;99.90;;;;;;4882653;28;90414;-35
2023/07/18 04:15:14;;;;;;;11.02;6.82;;;13.00;99.90;;;;;;4878691;28;87784;-40
2023/07/18 04:17:40;;;;;;;11.02;7.35;;;13.00;99.90;;;;;;4882067;28;89922;-38
2023/07/18 04:20:06;;;;;;;8.68;7.07;;;13.10;99.90;;;;;;4880561;28;89235;-37
2023/07/18 04:22:32;;;;;;;11.80;6.22;;;13.10;99.90;;;;;;4882620;28;89089;-31
2023/07/18 04:24:58;;;;;;;15.60;6.88;;;13.10;99.90;;;;;;4879751;28;89365;-39
2023/07/18 04:27:26;;;;;;;8.60;7.05;;;13.10;99.90;;;;;;4881827;28;90001;-36
2023/07/18 04:29:52;;;;;;;;;;;13.10;99.90;;;;;;4881225;28;90749;-32
2023/07/18 04:32:18;;;;;;;19.42;7.05;;;13.20;99.90;;;;;;4871737;28;89797;-39
2023/07/18 04:34:46;;;;;;;10.52;4.97;;;13.20;99.90;;;;;;4869310;28;89111;-31
2023/07/18 04:37:12;;;;;;;14.98;7.00;;;13.20;99.90;;;;;;4864327;28;90327;-39
2023/07/18 04:39:37;;;;;;;12.15;6.28;;;13.30;99.90;;;;;;4875650;28;89803;-40
2023/07/18 04:42:03;;;;;;;9.10;5.47;;;13.40;99.90;;;;;;4863930;28;89435;-35
2023/07/18 04:44:30;;;;;;;11.95;6.18;;;13.50;99.90;;;;;;4863235;28;89801;-39
2023/07/18 04:46:55;;;;;;;8.00;7.15;;;13.60;99.90;;;;;;4863197;28;89769;-37
2023/07/18 04:49:25;;;;;;;9.48;6.50;;;13.70;99.90;;;;;;4863446;28;89388;-42
2023/07/18 04:51:51;;;;;;;13.43;6.72;;;13.70;99.90;;;;;;4882518;28;89774;-34
2023/07/18 04:54:17;;;;;;;10.98;6.68;;;13.90;99.90;;;;;;4881725;28;87644;-36
2023/07/18 04:56:43;;;;;;;11.32;5.82;;;14.00;99.90;;;;;;4882127;28;90420;-36
2023/07/18 04:59:09;;;;;;;7.03;5.05;;;14.20;99.90;;;;;;4863485;28;92179;-37
2023/07/18 05:01:36;;;;;;;9.73;5.95;;;14.20;99.90;;;;;;4881344;28;89166;-35
2023/07/18 05:04:02;;;;;;;10.60;5.00;;;14.20;99.90;;;;;;4878238;28;89305;-35
2023/07/18 05:06:28;;;;;;;8.07;4.68;;;14.30;99.90;;;;;;4881192;28;89771;-35
2023/07/18 05:08:54;;;;;;;7.47;5.60;;;14.40;99.90;;;;;;4881378;28;90392;-40
2023/07/18 05:11:19;;;;;;;10.50;5.20;;;14.30;99.90;;;;;;4881769;28;89327;-34
2023/07/18 05:13:45;;;;;;;11.43;5.40;;;14.40;99.90;;;;;;4881814;28;89002;-41
2023/07/18 05:16:10;;;;;;;13.52;5.78;;;14.50;99.90;;;;;;4882242;28;89781;-38
2023/07/18 05:18:36;;;;;;;6.50;5.40;;;14.60;99.90;;;;;;4881102;28;90115;-37
2023/07/18 05:21:02;;;;;;;6.45;4.70;;;14.70;99.90;;;;;;4881316;28;89527;-36
2023/07/18 05:23:27;;;;;;;10.73;5.00;;;14.90;99.90;;;;;;4880789;28;90134;-35
2023/07/18 05:25:56;;;;;;;4.82;3.88;;;15.00;99.90;;;;;;4881234;28;90537;-39
2023/07/18 05:28:22;;;;;;;6.50;4.55;;;15.10;99.90;;;;;;4880844;28;89962;-34
2023/07/18 05:30:48;;;;;;;9.65;5.20;;;15.10;99.90;;;;;;4879853;28;90289;-36
2023/07/18 05:33:13;;;;;;;8.30;4.68;;;15.10;99.90;;;;;;4876738;28;89289;-36
2023/07/18 05:35:39;;;;;;;13.70;5.05;;;15.10;99.90;;;;;;4879684;28;91169;-35
2023/07/18 05:38:05;;;;;;;10.15;5.85;;;15.10;99.90;;;;;;4877205;28;90269;-43
2023/07/18 05:40:31;;;;;;;10.18;4.03;;;15.20;99.90;;;;;;4879529;28;89736;-37
2023/07/18 05:42:56;;;;;;;6.85;4.28;;;15.30;99.90;;;;;;4877100;28;88803;-39
2023/07/18 05:45:22;;;;;;;4.15;3.75;;;15.30;99.90;;;;;;4868085;28;90638;-36
2023/07/18 05:47:48;;;;;;;7.70;3.88;;;15.40;99.90;;;;;;4866791;28;90312;-37
2023/07/18 05:50:13;;;;;;;8.30;5.25;;;15.50;99.90;;;;;;4871296;28;90939;-42
2023/07/18 05:52:39;;;;;;;9.00;4.47;;;15.60;99.90;;;;;;4872390;28;89895;-37
2023/07/18 05:55:06;;;;;;;7.63;3.90;;;15.80;99.90;;;;;;4866183;28;90317;-39
2023/07/18 05:57:32;;;;;;;6.60;4.57;;;15.80;99.90;;;;;;4865979;28;89386;-32
2023/07/18 05:59:57;;;;;;;5.63;4.53;;;16.00;99.90;;;;;;4867784;28;89574;-37
2023/07/18 06:02:23;;;;;;;4.85;3.58;;;16.00;99.90;;;;;;4877638;28;89722;-38
2023/07/18 06:04:49;;;;;;;5.07;3.75;;;16.00;99.90;;;;;;4868141;28;90003;-39
2023/07/18 06:07:15;;;;;;;7.28;4.28;;;16.10;99.90;;;;;;4877570;28;89018;-35
2023/07/18 06:09:42;;;;;;;7.22;3.08;;;16.20;99.90;;;;;;4867240;28;88819;-37
2023/07/18 06:12:08;;;;;;;6.00;3.47;;;16.30;99.90;;;;;;4859902;28;88826;-37
2023/07/18 06:14:34;;;;;;;10.30;4.55;;;16.50;99.90;;;;;;4872257;28;90565;-34
2023/07/18 06:16:59;;;;;;;12.82;4.55;;;16.70;99.90;;;;;;4872863;28;89924;-44
2023/07/18 06:19:25;;;;;;;7.70;4.38;;;16.90;99.90;;;;;;4860530;28;89330;-41
2023/07/18 06:21:51;;;;;;;7.50;4.35;;;16.80;99.90;;;;;;4860470;28;89547;-34
2023/07/18 06:24:17;;;;;;;7.03;4.10;;;17.00;99.90;;;;;;4860738;28;89932;-39
2023/07/18 06:26:48;;;;;;;9.73;3.45;;;17.30;99.90;;;;;;4860704;28;89808;-38
2023/07/18 06:29:18;;;;;;;11.57;5.60;;;17.70;99.90;;;;;;4868725;28;88964;-34
2023/07/18 06:31:48;;;;;;;5.55;3.88;;;17.80;99.90;;;;;;4869764;28;89274;-33
2023/07/18 06:34:17;;;;;;;8.95;4.00;;;18.10;99.90;;;;;;4867115;28;90210;-33
2023/07/18 06:36:44;;;;;;;7.78;3.80;;;18.30;99.90;;;;;;4873658;28;90297;-35
2023/07/18 06:39:10;;;;;;;7.00;3.72;;;18.40;99.90;;;;;;4879482;28;88996;-35
2023/07/18 06:41:36;;;;;;;4.57;3.80;;;18.30;99.90;;;;;;4878298;28;88807;-41
2023/07/18 06:44:04;;;;;;;6.07;3.35;;;18.50;99.90;;;;;;4880073;28;90809;-43
2023/07/18 06:46:30;;;;;;;8.00;3.85;;;18.80;99.90;;;;;;4878334;28;90312;-41
2023/07/18 06:48:55;;;;;;;7.18;3.75;;;18.70;99.90;;;;;;4879796;28;89982;-41
2023/07/18 06:51:22;;;;;;;6.38;3.70;;;19.00;99.90;;;;;;4880316;28;89018;-38
2023/07/18 06:53:48;;;;;;;11.40;3.67;;;19.40;99.90;;;;;;4879774;28;89999;-42
2023/07/18 06:56:14;;;;;;;4.07;3.08;;;19.70;99.90;;;;;;4879020;28;89192;-35
2023/07/18 06:58:40;;;;;;;14.25;3.25;;;20.00;99.90;;;;;;4878364;28;90829;-38
2023/07/18 07:01:05;;;;;;;9.75;3.28;;;20.20;99.90;;;;;;4880105;28;88427;-36
2023/07/18 07:03:32;;;;;;;13.02;4.00;;;20.40;99.90;;;;;;4881956;28;92076;-33
2023/07/18 07:05:58;;;;;;;6.72;3.33;;;19.90;99.90;;;;;;4881097;28;89769;-33
2023/07/18 07:08:24;;;;;;;9.63;3.65;;;19.70;99.90;;;;;;4867361;28;88788;-34
2023/07/18 07:11:03;;;;;;;7.07;3.38;;;19.80;99.90;;;;;;4866221;28;89210;-37
2023/07/18 07:13:29;;;;;;;11.25;3.60;;;19.90;99.90;;;;;;4862795;28;90449;-36
2023/07/18 07:15:55;;;;;;;4.60;2.60;;;19.90;99.90;;;;;;4872812;28;89519;-34
2023/07/18 07:18:21;;;;;;;9.45;3.00;;;19.70;99.90;;;;;;4869155;28;88858;-40
2023/07/18 07:20:46;;;;;;;4.88;2.63;;;19.50;99.90;;;;;;4871408;28;89435;-41
2023/07/18 07:23:12;;;;;;;9.85;3.40;;;19.40;99.90;;;;;;4868755;28;90464;-44
2023/07/18 07:25:37;;;;;;;6.88;3.33;;;19.40;99.90;;;;;;4868636;28;91696;-35
2023/07/18 07:28:04;;;;;;;9.38;3.55;;;19.60;99.90;;;;;;4879376;28;90642;-42
2023/07/18 07:30:29;;;;;;;12.82;4.75;;;19.80;99.90;;;;;;4874721;28;88496;-41
2023/07/18 07:32:55;;;;;;;5.57;3.40;;;20.40;99.90;;;;;;4871514;28;90340;-38
2023/07/18 07:35:22;;;;;;;9.65;3.53;;;20.30;99.90;;;;;;4875516;28;89835;-38
2023/07/18 07:37:50;;;;;;;6.45;3.20;;;20.90;99.90;;;;;;4872728;28;89642;-39
2023/07/18 07:40:16;;;;;;;18.65;4.53;;;21.30;99.90;;;;;;4874273;28;88199;-36
2023/07/18 07:42:44;;;;;;;7.10;4.00;;;21.60;99.90;;;;;;4872777;28;89448;-39
2023/07/18 07:45:10;;;;;;;8.37;3.53;;;21.60;99.90;;;;;;4866200;28;89872;-37
2023/07/18 07:47:36;;;;;;;16.48;4.88;;;21.50;99.90;;;;;;4870535;28;90811;-36
2023/07/18 07:50:03;;;;;;;10.32;3.83;;;21.70;99.90;;;;;;4865344;28;90216;-37
2023/07/18 07:52:29;;;;;;;11.40;4.03;;;21.80;99.90;;;;;;4871679;28;90075;-39
2023/07/18 07:54:55;;;;;;;14.60;3.78;;;21.80;99.90;;;;;;4871651;28;90616;-39
2023/07/18 07:57:21;;;;;;;5.18;3.95;;;21.90;99.90;;;;;;4871664;28;88855;-37
2023/07/18 07:59:48;;;;;;;12.38;4.22;;;22.20;99.90;;;;;;4873612;28;89539;-34
2023/07/18 08:02:14;;;;;;;12.07;4.38;;;22.50;99.90;;;;;;4879474;28;90311;-37
2023/07/18 08:04:41;;;;;;;14.88;4.90;;;22.60;99.90;;;;;;4912056;23;89838;-33
2023/07/18 08:07:08;;;;;;;7.65;3.40;;;22.80;99.90;;;;;;4880822;28;88646;-37
2023/07/18 08:09:34;;;;;;;8.00;3.78;;;22.90;99.90;;;;;;4880618;28;89189;-39
2023/07/18 08:12:00;;;;;;;7.72;3.95;;;23.10;99.90;;;;;;4867993;28;90299;-36
2023/07/18 08:14:26;;;;;;;14.20;3.97;;;22.60;99.90;;;;;;4881685;28;90739;-35
2023/07/18 08:16:53;;;;;;;13.18;4.13;;;22.50;99.90;;;;;;4870256;28;91386;-37
2023/07/18 08:19:18;;;;;;;8.95;4.30;;;22.70;99.90;;;;;;4861784;28;89805;-42
2023/07/18 08:21:44;;;;;;;10.75;3.72;;;22.50;99.90;;;;;;4866151;28;90170;-38
2023/07/18 08:24:09;;;;;;;9.85;4.80;;;22.50;99.90;;;;;;4879797;28;89855;-40
2023/07/18 08:26:35;;;;;;;10.10;5.30;;;23.00;99.90;;;;;;4879860;28;90252;-35
2023/07/18 08:29:01;;;;;;;12.38;4.45;;;23.30;99.90;;;;;;4879839;28;89118;-35
2023/07/18 08:31:26;;;;;;;15.15;3.50;;;23.40;99.90;;;;;;4879905;28;90161;-43
2023/07/18 08:33:52;;;;;;;13.35;3.80;;;23.60;99.90;;;;;;4877634;28;89648;-41
2023/07/18 08:36:18;;;;;;;14.57;3.85;;;23.40;99.90;;;;;;4878595;28;89186;-41
2023/07/18 08:38:49;;;;;;;10.00;3.53;;;23.10;99.90;;;;;;4879343;28;90186;-37
2023/07/18 08:41:15;;;;;;;7.68;4.53;;;22.80;99.90;;;;;;4877224;28;92049;-39
2023/07/18 08:43:41;;;;;;;4.80;3.08;;;22.70;99.90;;;;;;4879617;28;90459;-40
2023/07/18 08:46:08;;;;;;;18.60;3.53;;;22.80;99.90;;;;;;4878647;28;89647;-40
2023/07/18 08:48:34;;;;;;;8.10;3.93;;;23.00;99.90;;;;;;4880059;28;87775;-42
2023/07/18 08:51:00;;;;;;;5.45;2.78;;;23.40;99.90;;;;;;4877851;28;90363;-41
2023/07/18 08:53:26;;;;;;;6.00;3.38;;;23.50;99.90;;;;;;4880231;28;89769;-39
2023/07/18 08:55:52;;;;;;;9.75;3.28;;;23.50;99.90;;;;;;4878584;28;90208;-35
2023/07/18 08:58:20;;;;;;;9.60;3.65;;;23.60;99.90;;;;;;4879148;28;87671;-35
2023/07/18 09:00:45;;;;;;;24.08;8.13;;;23.90;99.90;;;;;;4880498;28;89953;-38
2023/07/18 09:03:11;;;;;;;9.90;3.63;;;23.40;99.90;;;;;;4867855;28;90554;-40
2023/07/18 09:05:38;;;;;;;7.80;4.22;;;23.50;99.90;;;;;;4860255;28;90946;-38
2023/07/18 09:08:06;;;;;;;5.90;3.55;;;23.80;99.90;;;;;;4862352;28;89212;-36
2023/07/18 09:10:32;;;;;;;13.40;3.88;;;23.90;99.90;;;;;;4862011;28;90871;-31
2023/07/18 09:13:02;;;;;;;10.82;3.30;;;24.20;99.90;;;;;;4879535;28;89863;-34
2023/07/18 09:15:29;;;;;;;5.68;3.10;;;23.60;99.90;;;;;;4860297;28;89730;-35
2023/07/18 09:17:56;;;;;;;9.75;3.22;;;23.60;99.90;;;;;;4874059;28;89395;-33
2023/07/18 09:20:24;;;;;;;5.53;2.83;;;23.10;99.90;;;;;;4879884;28;90691;-34
2023/07/18 09:22:53;;;;;;;;;;;23.00;99.90;;;;;;4879103;28;91034;-33
2023/07/18 09:25:19;;;;;;;5.57;3.35;;;23.00;99.90;;;;;;4880361;28;89267;-31
2023/07/18 09:27:45;;;;;;;7.55;3.58;;;23.20;99.90;;;;;;4877240;28;90083;-38
2023/07/18 09:30:11;;;;;;;6.65;2.45;;;23.40;99.90;;;;;;4867676;28;90210;-33
2023/07/18 09:32:37;;;;;;;7.57;3.88;;;23.60;99.90;;;;;;4860279;28;89636;-36
2023/07/18 09:35:03;;;;;;;6.88;2.97;;;23.50;99.90;;;;;;4860495;28;89205;-32
2023/07/18 09:37:28;;;;;;;7.28;2.95;;;23.50;99.90;;;;;;4860447;28;88129;-33
2023/07/18 09:39:54;;;;;;;5.18;2.25;;;23.10;99.90;;;;;;4860703;28;90451;-33
2023/07/18 09:42:22;;;;;;;4.68;2.35;;;22.90;99.90;;;;;;4862071;28;90082;-37
2023/07/18 09:44:50;;;;;;;3.42;2.17;;;23.40;99.90;;;;;;4879517;28;90659;-33
2023/07/18 09:47:16;;;;;;;8.40;2.63;;;23.70;99.90;;;;;;4873914;28;88756;-36
2023/07/18 09:49:45;;;;;;;3.95;1.95;;;23.80;99.90;;;;;;4870078;28;90039;-33
2023/07/18 09:52:11;;;;;;;3.60;2.53;;;24.20;99.90;;;;;;4859535;28;90823;-37
2023/07/18 09:54:39;;;;;;;2.30;1.50;;;24.20;99.90;;;;;;4860889;28;90837;-35
2023/07/18 09:57:09;;;;;;;2.75;1.50;;;24.20;99.90;;;;;;4860865;28;89315;-35
2023/07/18 09:59:39;;;;;;;6.10;2.22;;;24.00;99.90;;;;;;4871767;28;91348;-34
2023/07/18 10:02:10;;;;;;;4.13;2.22;;;24.00;99.90;;;;;;4874128;28;89131;-34
2023/07/18 10:04:36;;;;;;;2.53;1.40;;;23.50;97.00;;;;;;4878687;28;89699;-34
2023/07/18 10:07:03;;;;;;;4.68;1.80;;;23.60;99.90;;;;;;4878238;28;90387;-33
2023/07/18 10:09:31;;;;;;;3.58;1.33;;;23.40;99.90;;;;;;4879609;28;90158;-38
2023/07/18 10:12:03;;;;;;;;;;;23.40;98.60;;;;;;4879819;28;89705;-37
2023/07/18 10:14:29;;;;;;;2.53;1.25;;;23.70;99.90;;;;;;4882100;28;89846;-36
2023/07/18 10:17:05;;;;;;;3.58;1.60;;;23.80;99.90;;;;;;4882052;28;89422;-33
2023/07/18 10:19:46;;;;;;;2.97;1.58;;;24.00;99.90;;;;;;4878190;28;88922;-32
2023/07/18 10:22:23;;;;;;;6.30;2.72;;;23.60;95.40;;;;;;4871746;28;89163;-31
2023/07/18 10:24:49;;;;;;;5.30;1.50;;;23.40;99.60;;;;;;4881676;28;90704;-32
2023/07/18 10:27:15;;;;;;;3.92;1.48;;;23.40;99.60;;;;;;4882635;28;88945;-32
2023/07/18 10:29:41;;;;;;;2.72;1.98;;;23.70;99.70;;;;;;4881348;28;90170;-38
2023/07/18 10:32:10;;;;;;;2.17;1.58;;;23.70;97.60;;;;;;4881187;28;89029;-34
2023/07/18 10:34:37;;;;;;;4.68;1.70;;;23.60;97.50;;;;;;4881747;28;90563;-36
2023/07/18 10:37:08;;;;;;;2.17;1.03;;;23.90;99.50;;;;;;4882850;28;88260;-34
2023/07/18 10:39:43;;;;;;;2.90;1.63;;;23.80;97.00;;;;;;4881374;28;89840;-39
2023/07/18 10:42:26;;;;;;;5.53;2.05;;;23.50;95.10;;;;;;4881278;28;89598;-35
2023/07/18 10:45:06;;;;;;;4.47;1.70;;;23.70;95.90;;;;;;4878816;28;90493;-34
2023/07/18 10:47:35;;;;;;;2.00;1.42;;;23.60;95.90;;;;;;4881782;28;89676;-39
2023/07/18 10:50:01;;;;;;;5.20;2.30;;;23.60;94.30;;;;;;4881080;28;90501;-37
2023/07/18 10:52:28;;;;;;;3.17;1.65;;;23.60;94.30;;;;;;4881428;28;89572;-32
2023/07/18 10:54:58;;;;;;;3.17;1.30;;;23.80;93.50;;;;;;4873077;28;89544;-37
2023/07/18 10:57:32;;;;;;;1.70;1.48;;;23.70;90.90;;;;;;4880053;28;89191;-37
2023/07/18 10:59:59;;;;;;;1.58;1.48;;;23.80;92.10;;;;;;4880466;28;90627;-36
2023/07/18 11:02:27;;;;;;;2.35;1.60;;;24.00;93.30;;;;;;4881020;28;90569;-35
2023/07/18 11:04:53;;;;;;;4.13;2.00;;;23.80;90.90;;;;;;4880529;28;89587;-38
2023/07/18 11:07:33;;;;;;;4.13;1.35;;;23.90;89.60;;;;;;4879918;28;90016;-37
2023/07/18 11:09:59;;;;;;;1.35;1.13;;;23.80;86.40;;;;;;4879451;28;90120;-34
2023/07/18 11:12:25;;;;;;;1.85;1.42;;;23.60;83.90;;;;;;4871636;28;89777;-36
2023/07/18 11:14:51;;;;;;;1.30;1.02;;;23.80;88.30;;;;;;4878263;28;89972;-32
2023/07/18 11:17:19;;;;;;;2.17;1.20;;;23.80;83.80;;;;;;4880760;28;89517;-40
2023/07/18 11:19:47;;;;;;;3.00;1.38;;;24.00;86.20;;;;;;4880311;28;90217;-38
2023/07/18 11:22:14;;;;;;;1.73;1.02;;;23.90;78.50;;;;;;4870029;28;89768;-33
2023/07/18 11:24:44;;;;;;;2.10;1.35;;;23.80;75.70;;;;;;4879313;28;90885;-37
2023/07/18 11:27:18;;;;;;;1.23;1.08;;;23.70;77.80;;;;;;4880588;28;88710;-36
2023/07/18 11:30:10;;;;;;;2.33;1.30;;;23.90;80.50;;;;;;4880980;28;90417;-32
2023/07/18 11:32:40;;;;;;;1.20;1.10;;;23.80;77.70;;;;;;4878225;28;90954;-37
2023/07/18 11:35:11;;;;;;;1.00;0.90;;;23.50;75.80;;;;;;4872948;28;91059;-38
2023/07/18 11:37:41;;;;;;;2.90;1.10;;;23.70;76.70;;;;;;4881028;28;88245;-35
2023/07/18 11:40:08;;;;;;;2.85;1.02;;;23.80;79.90;;;;;;4880493;28;90395;-35
2023/07/18 11:42:49;;;;;;;2.58;1.08;;;23.60;77.90;;;;;;4880326;28;89880;-32
2023/07/18 11:45:20;;;;;;;1.20;1.10;;;23.60;82.10;;;;;;4879603;28;89422;-32
2023/07/18 11:47:51;;;;;;;1.27;1.17;;;23.80;84.60;;;;;;4881081;28;89523;-32
2023/07/18 11:50:17;;;;;;;3.80;1.40;;;23.60;82.50;;;;;;4880597;28;90636;-36
2023/07/18 11:52:50;;;;;;;1.52;1.42;;;23.80;81.90;;;;;;4879614;28;90523;-35
2023/07/18 11:55:18;;;;;;;0.77;0.73;;;23.80;80.40;;;;;;4880658;28;88805;-36
2023/07/18 11:57:44;;;;;;;3.00;1.35;;;23.90;79.50;;;;;;4880661;28;90367;-38
2023/07/18 12:00:13;;;;;;;2.05;1.67;;;23.80;72.40;;;;;;4878359;28;90890;-37
2023/07/18 12:02:39;;;;;;;1.27;1.10;;;23.70;74.00;;;;;;4880439;28;88933;-39
2023/07/18 12:05:06;;;;;;;1.38;1.27;;;23.70;73.90;;;;;;4868506;28;89884;-32
2023/07/18 12:07:35;;;;;;;2.28;1.42;;;23.60;75.60;;;;;;4874384;28;90100;-33
2023/07/18 12:10:01;;;;;;;1.50;1.40;;;23.70;81.50;;;;;;4862718;28;91189;-34
2023/07/18 12:12:28;;;;;;;2.92;1.27;;;23.90;77.60;;;;;;4862482;28;89216;-36
2023/07/18 12:14:54;;;;;;;1.65;1.25;;;23.90;80.50;;;;;;4863667;28;89625;-38
2023/07/18 12:17:19;;;;;;;4.00;1.27;;;23.80;74.10;;;;;;4863697;28;88876;-35
2023/07/18 12:19:45;;;;;;;6.53;1.73;;;23.60;75.50;;;;;;4878210;28;90221;-35
2023/07/18 12:22:15;;;;;;;2.05;1.30;;;23.70;78.70;;;;;;4882311;28;90783;-34
2023/07/18 12:24:41;;;;;;;1.88;0.95;;;23.90;77.30;;;;;;4879240;28;90341;-36
2023/07/18 12:27:07;;;;;;;5.18;1.20;;;23.90;78.30;;;;;;4864304;28;88677;-33
2023/07/18 12:29:32;;;;;;;1.83;1.08;;;24.00;76.30;;;;;;4872427;28;90852;-36
2023/07/18 12:31:58;;;;;;;3.35;1.48;;;23.80;79.50;;;;;;4879779;28;89625;-33
2023/07/18 12:34:24;;;;;;;1.42;1.30;;;23.80;76.90;;;;;;4875014;28;89850;-32
2023/07/18 12:36:50;;;;;;;5.45;1.42;;;23.90;79.00;;;;;;4875526;28;88975;-39
2023/07/18 12:39:16;;;;;;;1.73;0.90;;;23.90;79.30;;;;;;4874954;28;90141;-32
2023/07/18 12:41:42;;;;;;;3.65;1.27;;;23.80;78.90;;;;;;4875439;28;89802;-36
2023/07/18 12:44:08;;;;;;;2.20;1.20;;;23.90;80.30;;;;;;4872018;28;89315;-32